Time;durP1;ratioP1;P1;durP2;ratioP2;P2;SDS_P1;SDS_P2;PMS_P1;PMS_P2;Temp;Humidity;BMP_temperature;BMP_pressure;BME280_temperature;BME280_humidity;BME280_pressure;Samples;Min_cycle;Max_cycle;Signal;HPM_P1;HPM_P2
2023/08/06 00:00:15;;;;;;;0.62;0.62;;;;;;;21.69;60.34;98347.69;4284616;33;20088;-93
2023/08/06 00:02:40;;;;;;;0.15;0.15;;;;;;;21.69;60.34;98360.13;4294914;33;20164;-93
2023/08/06 00:05:06;;;;;;;1.25;0.45;;;;;;;21.49;60.34;98359.44;4294925;33;20168;-92
2023/08/06 00:07:31;;;;;;;0.75;0.75;;;;;;;21.56;60.33;98352.56;4289737;33;20096;-92
2023/08/06 00:09:57;;;;;;;2.10;1.25;;;;;;;21.63;60.34;98353.63;4284076;33;20132;-92
2023/08/06 00:12:23;;;;;;;0.45;0.45;;;;;;;21.85;60.36;98343.53;4293357;33;20161;-92
2023/08/06 00:14:51;;;;;;;0.62;0.62;;;;;;;21.89;60.36;98329.81;4305236;33;20152;-93
2023/08/06 00:17:17;;;;;;;0.10;0.10;;;;;;;21.86;60.35;98332.78;4305374;33;20122;-92
2023/08/06 00:19:42;;;;;;;0.62;0.62;;;;;;;21.90;60.36;98335.94;4305065;33;20100;-92
2023/08/06 00:22:08;;;;;;;0.25;0.25;;;;;;;21.83;60.35;98343.69;4293053;33;20108;-92
2023/08/06 00:24:34;;;;;;;0.28;0.28;;;;;;;21.87;60.35;98350.31;4293113;33;20175;-94
2023/08/06 00:27:00;;;;;;;0.03;0.03;;;;;;;21.90;60.36;98359.78;4293133;33;20111;-93
2023/08/06 00:29:25;;;;;;;2.60;0.82;;;;;;;21.72;60.36;98354.50;4293034;33;20112;-94
2023/08/06 00:31:50;;;;;;;0.45;0.45;;;;;;;21.63;60.34;98350.97;4292593;33;20792;-93
2023/08/06 00:34:16;;;;;;;0.80;0.52;;;;;;;21.63;60.34;98350.97;4292863;33;20144;-93
2023/08/06 00:36:41;;;;;;;0.20;0.20;;;;;;;21.56;60.34;98355.22;4292965;33;20092;-93
2023/08/06 00:39:07;;;;;;;0.15;0.15;;;;;;;21.34;60.33;98351.22;4292723;33;20112;-94
2023/08/06 00:41:32;;;;;;;3.95;0.62;;;;;;;21.58;60.35;98345.31;4294727;33;20104;-94
2023/08/06 00:43:58;;;;;;;0.32;0.32;;;;;;;21.57;60.34;98341.00;4294948;33;20148;-93
2023/08/06 00:46:23;;;;;;;0.25;0.25;;;;;;;21.52;60.34;98334.47;4306853;33;20470;-93
2023/08/06 00:48:49;;;;;;;0.55;0.43;;;;;;;21.51;60.34;98330.16;4294879;33;20104;-93
2023/08/06 00:51:14;;;;;;;2.15;0.47;;;;;;;21.45;60.33;98328.97;4295042;33;20111;-95
2023/08/06 00:53:40;;;;;;;0.35;0.30;;;;;;;21.56;60.33;98320.81;4294707;33;20089;-95
2023/08/06 00:56:06;;;;;;;0.98;0.98;;;;;;;21.77;60.35;98315.16;4294905;33;20201;-95
2023/08/06 00:58:32;;;;;;;1.75;0.73;;;;;;;21.52;60.34;98311.47;4294987;33;20096;-95
2023/08/06 01:00:57;;;;;;;0.75;0.75;;;;;;;21.38;60.33;98312.88;4295013;33;20180;-95
2023/08/06 01:03:23;;;;;;;0.30;0.30;;;;;;;21.37;60.33;98305.91;4295007;33;20153;-94
2023/08/06 01:05:48;;;;;;;0.28;0.28;;;;;;;21.11;60.32;98308.44;4294723;33;20139;-94
2023/08/06 01:08:34;;;;;;;0.62;0.30;;;;;;;21.33;60.33;98307.19;4294761;33;20434;-94
2023/08/06 01:11:03;;;;;;;0.25;0.25;;;;;;;21.24;60.32;98289.56;4306925;33;20108;-94
2023/08/06 01:13:46;;;;;;;0.55;0.50;;;;;;;21.12;60.32;98286.31;4307073;33;20112;-94
2023/08/06 01:16:14;;;;;;;0.55;0.55;;;;;;;21.26;60.33;98284.94;4306888;33;20075;-94
2023/08/06 01:18:41;;;;;;;0.35;0.35;;;;;;;21.12;60.32;98283.66;4294934;33;20505;-95
2023/08/06 01:21:07;;;;;;;0.25;0.25;;;;;;;21.21;60.32;98279.25;4294766;33;20104;-94
2023/08/06 01:23:33;;;;;;;0.30;0.30;;;;;;;21.00;60.31;98271.63;4294787;33;20176;-94
2023/08/06 01:26:10;;;;;;;0.13;0.13;;;;;;;20.97;60.31;98271.09;4294952;33;20115;-95
2023/08/06 01:28:48;;;;;;;0.25;0.25;;;;;;;21.05;60.31;98279.94;4306794;33;20092;-96
2023/08/06 01:31:21;;;;;;;0.20;0.20;;;;;;;21.06;60.31;98276.34;4306761;33;20124;-95
2023/08/06 01:33:48;;;;;;;0.40;0.40;;;;;;;20.77;60.29;98280.97;4294859;33;20108;-96
2023/08/06 01:36:15;;;;;;;0.08;0.08;;;;;;;20.77;60.29;98278.31;4294858;33;20105;-95
2023/08/06 01:38:40;;;;;;;0.37;0.28;;;;;;;20.77;60.29;98279.16;4294716;33;20111;-96
2023/08/06 01:41:06;;;;;;;0.28;0.28;;;;;;;20.54;60.28;98284.03;4294701;33;20108;-95
2023/08/06 01:43:31;;;;;;;0.28;0.28;;;;;;;20.63;60.29;98281.50;4294723;33;20500;-95
2023/08/06 01:45:57;;;;;;;0.25;0.25;;;;;;;20.80;60.31;98285.97;4294775;33;20764;-95
2023/08/06 01:48:22;;;;;;;0.55;0.55;;;;;;;20.79;60.31;98276.38;4294516;33;20088;-94
2023/08/06 01:50:48;;;;;;;0.35;0.35;;;;;;;20.90;60.30;98268.22;4296502;33;20421;-95
2023/08/06 01:53:13;;;;;;;0.25;0.25;;;;;;;20.90;60.30;98273.53;4300601;33;20190;-95
2023/08/06 01:55:38;;;;;;;0.55;0.47;;;;;;;21.04;60.31;98267.69;4297959;33;20108;-96
2023/08/06 01:58:04;;;;;;;0.00;0.00;;;;;;;20.99;60.31;98259.38;4294962;33;20088;-96
2023/08/06 02:00:29;;;;;;;0.00;0.00;;;;;;;21.06;60.31;98249.88;4294781;33;20174;-96
2023/08/06 02:02:55;;;;;;;0.10;0.10;;;;;;;20.96;60.31;98251.75;4294643;33;20411;-94
2023/08/06 02:05:20;;;;;;;3.05;0.60;;;;;;;21.04;60.31;98238.59;4294558;33;20418;-94
2023/08/06 02:07:46;;;;;;;0.00;0.00;;;;;;;20.99;60.31;98230.28;4294414;33;20498;-94
2023/08/06 02:10:11;;;;;;;0.00;0.00;;;;;;;21.10;60.32;98224.78;4294322;33;20130;-96
2023/08/06 02:12:37;;;;;;;0.20;0.20;;;;;;;21.08;60.31;98224.09;4294719;33;20116;-95
2023/08/06 02:15:03;;;;;;;0.10;0.10;;;;;;;21.11;60.32;98212.38;4294416;33;20461;-95
2023/08/06 02:17:28;;;;;;;0.00;0.00;;;;;;;21.06;60.32;98207.53;4294509;33;20636;-94
2023/08/06 02:19:54;;;;;;;0.10;0.10;;;;;;;21.08;60.30;98197.63;4294252;33;20116;-95
2023/08/06 02:22:19;;;;;;;0.20;0.20;;;;;;;21.16;60.31;98202.16;4294255;33;20192;-95
2023/08/06 02:24:45;;;;;;;0.75;0.43;;;;;;;21.00;60.31;98202.00;4294440;33;20139;-95
2023/08/06 02:27:10;;;;;;;0.20;0.20;;;;;;;20.95;60.31;98197.19;4294273;33;20100;-94
2023/08/06 02:29:35;;;;;;;0.20;0.20;;;;;;;20.89;60.30;98195.16;4294289;33;20177;-95
2023/08/06 02:32:02;;;;;;;0.30;0.10;;;;;;;20.95;60.31;98199.00;4294396;33;20478;-95
2023/08/06 02:34:27;;;;;;;0.00;0.00;;;;;;;20.96;60.31;98196.19;4294358;33;20060;-94
2023/08/06 02:36:53;;;;;;;6.55;0.60;;;;;;;21.02;60.30;98197.41;4294376;33;20342;-95
2023/08/06 02:39:19;;;;;;;0.00;0.00;;;;;;;21.08;60.31;98195.00;4294189;33;20143;-96
2023/08/06 02:41:44;;;;;;;0.08;0.08;;;;;;;21.03;60.31;98186.66;4294176;33;20176;-94
2023/08/06 02:44:09;;;;;;;0.98;0.70;;;;;;;20.95;60.31;98189.25;4294427;33;20136;-95
2023/08/06 02:46:35;;;;;;;0.37;0.37;;;;;;;20.92;60.30;98189.56;4294178;33;20135;-95
2023/08/06 02:49:00;;;;;;;0.00;0.00;;;;;;;20.79;60.29;98178.50;4294301;33;20119;-95
2023/08/06 02:51:26;;;;;;;3.30;0.60;;;;;;;20.87;60.30;98164.56;4294349;33;20172;-95
2023/08/06 02:53:51;;;;;;;0.00;0.00;;;;;;;20.89;60.30;98168.72;4294222;33;20096;-94
2023/08/06 02:56:17;;;;;;;0.32;0.20;;;;;;;20.81;60.30;98174.72;4293936;33;20139;-95
2023/08/06 02:58:42;;;;;;;0.00;0.00;;;;;;;21.04;60.31;98184.84;4294137;33;20159;-95
2023/08/06 03:01:07;;;;;;;0.00;0.00;;;;;;;20.72;60.30;98188.88;4294311;33;20108;-94
2023/08/06 03:03:33;;;;;;;0.28;0.28;;;;;;;20.74;60.30;98184.25;4293284;33;20104;-96
2023/08/06 03:05:59;;;;;;;1.20;0.20;;;;;;;20.86;60.29;98189.34;4294003;33;20144;-96
2023/08/06 03:08:24;;;;;;;0.00;0.00;;;;;;;20.74;60.30;98186.06;4305972;33;20119;-95
2023/08/06 03:10:50;;;;;;;0.28;0.20;;;;;;;20.85;60.30;98188.50;4293970;33;20124;-95
2023/08/06 03:13:16;;;;;;;1.37;0.82;;;;;;;20.95;60.31;98199.00;4293956;33;20104;-95
2023/08/06 03:15:42;;;;;;;0.50;0.50;;;;;;;20.87;60.29;98194.47;4294100;33;20100;-96
2023/08/06 03:18:07;;;;;;;2.72;0.65;;;;;;;20.67;60.29;98179.75;4294040;33;20132;-94
2023/08/06 03:20:32;;;;;;;0.10;0.10;;;;;;;20.75;60.30;98183.28;4293763;33;20132;-94
2023/08/06 03:22:58;;;;;;;0.10;0.10;;;;;;;20.75;60.30;98175.34;4294007;33;20092;-93
2023/08/06 03:25:23;;;;;;;0.22;0.22;;;;;;;20.55;60.28;98189.69;4293714;33;20104;-94
2023/08/06 03:27:49;;;;;;;0.10;0.10;;;;;;;20.59;60.29;98180.50;4293684;33;20601;-94
2023/08/06 03:30:14;;;;;;;3.00;1.05;;;;;;;20.50;60.29;98184.84;4293561;33;20130;-95
2023/08/06 03:32:40;;;;;;;2.45;1.08;;;;;;;20.63;60.29;98179.22;4293970;33;20410;-94
2023/08/06 03:35:05;;;;;;;0.00;0.00;;;;;;;20.50;60.29;98184.03;4294052;33;20096;-94
2023/08/06 03:37:31;;;;;;;0.00;0.00;;;;;;;20.70;60.29;98172.34;4308732;33;20120;-94
2023/08/06 03:39:56;;;;;;;0.10;0.10;;;;;;;20.62;60.29;98176.72;4309133;33;20152;-94
2023/08/06 03:42:22;;;;;;;0.62;0.62;;;;;;;20.50;60.29;98178.75;4294096;33;20118;-94
2023/08/06 03:44:47;;;;;;;0.00;0.00;;;;;;;20.49;60.29;98177.91;4293639;33;20144;-94
2023/08/06 03:47:13;;;;;;;0.45;0.32;;;;;;;20.32;60.28;98191.88;4293503;33;20116;-93
2023/08/06 03:49:39;;;;;;;0.00;0.00;;;;;;;20.58;60.29;98186.75;4293569;33;20108;-94
2023/08/06 03:52:05;;;;;;;0.10;0.10;;;;;;;20.62;60.29;98182.84;4293359;33;20176;-94
2023/08/06 03:54:30;;;;;;;0.10;0.10;;;;;;;20.59;60.29;98183.16;4293642;33;20072;-94
2023/08/06 03:56:56;;;;;;;0.05;0.05;;;;;;;20.69;60.30;98183.06;4305648;33;20130;-94
2023/08/06 03:59:21;;;;;;;1.17;0.57;;;;;;;20.68;60.29;98184.88;4293425;33;20104;-94
2023/08/06 04:01:47;;;;;;;0.40;0.40;;;;;;;20.74;60.30;98181.63;4293276;33;20131;-93
2023/08/06 04:04:12;;;;;;;0.10;0.10;;;;;;;20.85;60.30;98175.28;4293294;33;20152;-94
2023/08/06 04:06:37;;;;;;;0.50;0.50;;;;;;;20.87;60.30;98183.06;4293309;33;20138;-94
2023/08/06 04:09:03;;;;;;;0.40;0.40;;;;;;;20.75;60.30;98178.00;4293449;33;20167;-94
2023/08/06 04:11:28;;;;;;;0.00;0.00;;;;;;;20.63;60.29;98179.22;4293349;33;20460;-95
2023/08/06 04:13:55;;;;;;;0.00;0.00;;;;;;;20.35;60.28;98174.94;4293691;33;20112;-94
2023/08/06 04:16:21;;;;;;;0.00;0.00;;;;;;;20.31;60.27;98170.91;4295606;33;20108;-94
2023/08/06 04:18:46;;;;;;;0.00;0.00;;;;;;;20.11;60.26;98170.19;4295107;33;20101;-94
2023/08/06 04:21:11;;;;;;;0.00;0.00;;;;;;;20.05;60.26;98173.41;4294924;33;20092;-94
2023/08/06 04:23:37;;;;;;;0.00;0.00;;;;;;;20.04;60.26;98163.84;4294806;33;20118;-95
2023/08/06 04:26:02;;;;;;;0.20;0.15;;;;;;;19.99;60.26;98172.19;4295168;33;20107;-93
2023/08/06 04:28:28;;;;;;;0.00;0.00;;;;;;;20.03;60.26;98165.66;4295300;33;20097;-94
2023/08/06 04:30:53;;;;;;;0.00;0.00;;;;;;;19.97;60.26;98173.31;4294616;33;26428;-94
2023/08/06 04:33:19;;;;;;;0.00;0.00;;;;;;;19.82;60.25;98167.69;4295047;33;20096;-94
2023/08/06 04:35:45;;;;;;;0.00;0.00;;;;;;;19.92;60.25;98164.03;4295217;33;20108;-93
2023/08/06 04:38:10;;;;;;;0.00;0.00;;;;;;;19.77;60.24;98160.22;4294852;33;20147;-94
2023/08/06 04:40:36;;;;;;;0.05;0.00;;;;;;;19.70;60.24;98160.94;4295006;33;20136;-94
2023/08/06 04:43:01;;;;;;;0.00;0.00;;;;;;;19.71;60.25;98158.16;4294945;33;20156;-94
2023/08/06 04:45:27;;;;;;;0.00;0.00;;;;;;;19.66;60.24;98160.41;4295090;33;20108;-94
2023/08/06 04:47:52;;;;;;;0.00;0.00;;;;;;;19.79;60.25;98155.63;4294974;33;20125;-94
2023/08/06 04:50:19;;;;;;;0.00;0.00;;;;;;;19.75;60.24;98151.59;4294993;33;20097;-95
2023/08/06 04:52:44;;;;;;;0.00;0.00;;;;;;;19.85;60.25;98156.84;4306977;33;20086;-93
2023/08/06 04:55:09;;;;;;;0.00;0.00;;;;;;;19.76;60.24;98157.72;4294803;33;20178;-94
2023/08/06 04:57:35;;;;;;;0.10;0.10;;;;;;;19.67;60.24;98153.31;4295147;33;20448;-92
2023/08/06 05:00:00;;;;;;;0.45;0.43;;;;;;;19.91;60.25;98149.19;4294457;33;30518;-92
2023/08/06 05:02:26;;;;;;;0.00;0.00;;;;;;;19.84;60.25;98148.06;4294936;33;20136;-92
2023/08/06 05:04:51;;;;;;;0.00;0.00;;;;;;;19.96;60.26;98150.53;4294830;33;20139;-92
2023/08/06 05:07:17;;;;;;;0.00;0.00;;;;;;;19.94;60.26;98150.69;4294747;33;20164;-92
2023/08/06 05:09:42;;;;;;;0.00;0.00;;;;;;;20.06;60.26;98153.94;4294827;33;20115;-93
2023/08/06 05:12:07;;;;;;;0.00;0.00;;;;;;;19.87;60.25;98147.81;4294820;33;20399;-91
2023/08/06 05:14:33;;;;;;;0.00;0.00;;;;;;;19.76;60.24;98139.25;4294890;33;20108;-91
2023/08/06 05:16:58;;;;;;;0.00;0.00;;;;;;;19.89;60.25;98143.22;4294585;33;20490;-92
2023/08/06 05:19:24;;;;;;;0.00;0.00;;;;;;;19.77;60.24;98132.97;4294802;33;20163;-92
2023/08/06 05:21:49;;;;;;;0.00;0.00;;;;;;;19.82;60.25;98136.84;4294776;33;20715;-93
2023/08/06 05:24:15;;;;;;;0.00;0.00;;;;;;;19.70;60.24;98134.56;4297209;33;20136;-93
2023/08/06 05:26:40;;;;;;;0.00;0.00;;;;;;;19.73;60.25;98132.44;4296880;33;20505;-92
2023/08/06 05:29:05;;;;;;;0.00;0.00;;;;;;;19.59;60.24;98139.03;4294929;33;20413;-93
2023/08/06 05:31:31;;;;;;;0.00;0.00;;;;;;;19.56;60.24;98141.94;4294252;33;20111;-91
2023/08/06 05:33:56;;;;;;;0.00;0.00;;;;;;;19.53;60.23;98142.25;4294704;33;20197;-92
2023/08/06 05:36:22;;;;;;;0.00;0.00;;;;;;;19.37;60.22;98146.41;4294602;33;20144;-91
2023/08/06 05:38:47;;;;;;;0.00;0.00;;;;;;;19.50;60.23;98136.41;4294410;33;20444;-92
2023/08/06 05:41:13;;;;;;;0.00;0.00;;;;;;;19.59;60.23;98133.75;4294405;33;20092;-92
2023/08/06 05:43:38;;;;;;;0.00;0.00;;;;;;;19.47;60.24;98136.69;4294371;33;20355;-91
2023/08/06 05:46:04;;;;;;;0.00;0.00;;;;;;;19.41;60.23;98139.91;4294486;33;20126;-92
2023/08/06 05:48:29;;;;;;;0.00;0.00;;;;;;;19.11;60.21;98133.84;4294418;33;20088;-92
2023/08/06 05:50:55;;;;;;;0.00;0.00;;;;;;;19.07;60.21;98139.56;4294377;33;20088;-91
2023/08/06 05:53:20;;;;;;;0.00;0.00;;;;;;;19.23;60.21;98139.81;4294343;33;20112;-91
2023/08/06 05:55:45;;;;;;;0.00;0.00;;;;;;;19.35;60.23;98132.53;4294341;33;20226;-91
2023/08/06 05:58:11;;;;;;;0.00;0.00;;;;;;;19.09;60.22;98138.44;4293993;33;20092;-90
2023/08/06 06:00:36;;;;;;;0.00;0.00;;;;;;;18.99;60.20;98127.09;4293992;33;20107;-91
2023/08/06 06:03:02;;;;;;;0.00;0.00;;;;;;;18.99;60.20;98124.47;4306347;33;20167;-90
2023/08/06 06:05:28;;;;;;;0.00;0.00;;;;;;;18.75;60.19;98124.91;4294320;33;20183;-91
2023/08/06 06:07:53;;;;;;;0.00;0.00;;;;;;;18.78;60.19;98123.78;4306250;33;20096;-91
2023/08/06 06:10:19;;;;;;;0.00;0.00;;;;;;;18.84;60.19;98116.13;4294243;33;20116;-89
2023/08/06 06:12:44;;;;;;;0.00;0.00;;;;;;;18.73;60.19;98116.31;4306263;33;20115;-90
2023/08/06 06:15:10;;;;;;;0.00;0.00;;;;;;;18.75;60.19;98116.16;4294269;33;20144;-91
2023/08/06 06:17:35;;;;;;;0.05;0.03;;;;;;;18.80;60.20;98109.50;4294076;33;20140;-90
2023/08/06 06:20:02;;;;;;;0.00;0.00;;;;;;;18.66;60.19;98116.00;4294492;33;20092;-91
2023/08/06 06:22:28;;;;;;;0.00;0.00;;;;;;;18.52;60.17;98121.69;4294514;33;20108;-91
2023/08/06 06:24:53;;;;;;;0.00;0.00;;;;;;;18.55;60.19;98117.94;4294067;33;20509;-89
2023/08/06 06:27:19;;;;;;;0.00;0.00;;;;;;;18.73;60.19;98116.31;4293551;33;20140;-91
2023/08/06 06:29:44;;;;;;;0.00;0.00;;;;;;;18.82;60.19;98117.25;4293888;33;20143;-91
2023/08/06 06:32:10;;;;;;;0.00;0.00;;;;;;;18.79;60.19;98128.09;4294266;33;20152;-91
2023/08/06 06:34:35;;;;;;;1.77;1.17;;;;;;;18.87;60.20;98136.94;4294284;33;20163;-91
2023/08/06 06:37:01;;;;;;;0.00;0.00;;;;;;;18.87;60.20;98144.84;4293996;33;20084;-90
2023/08/06 06:39:26;;;;;;;0.00;0.00;;;;;;;18.81;60.20;98144.59;4293250;33;20143;-90
2023/08/06 06:41:51;;;;;;;0.00;0.00;;;;;;;18.91;60.20;98150.69;4294483;33;20156;-91
2023/08/06 06:44:17;;;;;;;0.00;0.00;;;;;;;18.69;60.18;98151.78;4306137;33;20096;-90
2023/08/06 06:46:42;;;;;;;0.00;0.00;;;;;;;18.92;60.21;98142.63;4294173;33;20096;-90
2023/08/06 06:49:08;;;;;;;0.00;0.00;;;;;;;18.80;60.20;98149.03;4294296;33;20112;-91
2023/08/06 06:51:33;;;;;;;0.00;0.00;;;;;;;18.77;60.19;98154.59;4294170;33;20523;-90
2023/08/06 06:53:59;;;;;;;0.00;0.00;;;;;;;18.81;60.20;98152.50;4294216;33;20140;-90
2023/08/06 06:56:24;;;;;;;0.00;0.00;;;;;;;19.10;60.21;98153.28;4294257;33;20144;-90
2023/08/06 06:58:50;;;;;;;0.00;0.00;;;;;;;19.18;60.22;98149.97;4294143;33;20215;-90
2023/08/06 07:01:15;;;;;;;0.00;0.00;;;;;;;19.28;60.22;98143.69;4294258;33;20130;-89
2023/08/06 07:03:40;;;;;;;0.00;0.00;;;;;;;19.32;60.23;98129.22;4293858;33;20135;-89
2023/08/06 07:06:06;;;;;;;0.00;0.00;;;;;;;19.37;60.22;98141.16;4293703;33;20100;-90
2023/08/06 07:08:31;;;;;;;0.00;0.00;;;;;;;19.32;60.23;98136.31;4295097;33;20092;-90
2023/08/06 07:11:01;;;;;;;0.00;0.00;;;;;;;19.37;60.22;98147.25;4295263;33;21709;-90
2023/08/06 07:13:27;;;;;;;0.00;0.00;;;;;;;19.40;60.23;98141.72;4306445;33;20196;-90
2023/08/06 07:15:53;;;;;;;0.00;0.00;;;;;;;19.35;60.23;98132.53;4293750;33;20111;-91
2023/08/06 07:18:19;;;;;;;0.00;0.00;;;;;;;19.29;60.22;98147.16;4293477;33;20466;-90
2023/08/06 07:20:49;;;;;;;0.00;0.00;;;;;;;19.16;60.22;98139.53;4293282;33;20163;-90
2023/08/06 07:23:14;;;;;;;0.00;0.00;;;;;;;19.24;60.21;98150.22;4293396;33;20145;-90
2023/08/06 07:25:40;;;;;;;0.00;0.00;;;;;;;19.42;60.22;98160.88;4293702;33;20170;-90
2023/08/06 07:28:05;;;;;;;0.00;0.00;;;;;;;19.27;60.22;98163.13;4293687;33;20164;-90
2023/08/06 07:30:31;;;;;;;0.00;0.00;;;;;;;19.45;60.23;98165.88;4293765;33;20108;-90
2023/08/06 07:32:56;;;;;;;0.00;0.00;;;;;;;19.46;60.23;98164.06;4293534;33;20125;-90
2023/08/06 07:35:22;;;;;;;0.00;0.00;;;;;;;19.33;60.23;98159.06;4293613;33;20535;-90
2023/08/06 07:37:47;;;;;;;0.00;0.00;;;;;;;19.29;60.22;98160.34;4293517;33;20434;-90
2023/08/06 07:40:13;;;;;;;0.00;0.00;;;;;;;19.35;60.23;98159.75;4293534;33;20097;-92
2023/08/06 07:42:39;;;;;;;0.00;0.00;;;;;;;19.32;60.23;98160.06;4305826;33;20130;-90
2023/08/06 07:45:05;;;;;;;0.00;0.00;;;;;;;19.34;60.23;98166.00;4293616;33;20130;-90
2023/08/06 07:47:30;;;;;;;0.00;0.00;;;;;;;19.36;60.22;98171.16;4293533;33;20131;-91
2023/08/06 07:49:55;;;;;;;0.00;0.00;;;;;;;19.41;60.23;98174.22;4293405;33;20417;-90
2023/08/06 07:52:21;;;;;;;0.00;0.00;;;;;;;19.28;60.23;98171.87;4293728;33;20410;-91
2023/08/06 07:54:46;;;;;;;0.00;0.00;;;;;;;19.31;60.22;98166.31;4293392;33;20172;-91
2023/08/06 07:57:13;;;;;;;0.00;0.00;;;;;;;19.31;60.22;98163.66;4293468;33;20157;-90
2023/08/06 07:59:39;;;;;;;0.00;0.00;;;;;;;19.53;60.23;98157.22;4293655;33;20105;-91
2023/08/06 08:02:05;;;;;;;0.00;0.00;;;;;;;19.53;60.23;98154.56;4305487;33;20134;-91
2023/08/06 08:04:31;;;;;;;0.00;0.00;;;;;;;19.41;60.23;98155.75;4293482;33;20138;-91
2023/08/06 08:06:56;;;;;;;0.10;0.10;;;;;;;19.44;60.23;98153.66;4293735;33;20111;-90
2023/08/06 08:09:22;;;;;;;0.00;0.00;;;;;;;19.36;60.22;98142.13;4293451;33;20156;-90
2023/08/06 08:11:47;;;;;;;0.00;0.00;;;;;;;19.35;60.23;98146.56;4293622;33;20096;-90
2023/08/06 08:14:12;;;;;;;0.00;0.00;;;;;;;19.35;60.23;98145.75;4293656;33;20135;-90
2023/08/06 08:16:38;;;;;;;0.00;0.00;;;;;;;19.56;60.24;98130.56;4293191;33;20143;-91
2023/08/06 08:19:03;;;;;;;0.00;0.00;;;;;;;19.79;60.25;98139.78;4293351;33;20162;-92
2023/08/06 08:21:29;;;;;;;0.00;0.00;;;;;;;19.94;60.26;98145.41;4293273;33;20140;-91
2023/08/06 08:23:54;;;;;;;0.00;0.00;;;;;;;19.78;60.24;98158.41;4293369;33;20172;-91
2023/08/06 08:26:20;;;;;;;0.00;0.00;;;;;;;19.78;60.24;98155.75;4293722;33;20568;-92
2023/08/06 08:28:45;;;;;;;0.00;0.00;;;;;;;19.90;60.25;98168.62;4293114;33;20454;-90
2023/08/06 08:31:11;;;;;;;0.30;0.20;;;;;;;19.92;60.25;98165.84;4293037;33;20084;-91
2023/08/06 08:33:40;;;;;;;0.00;0.00;;;;;;;20.13;60.26;98170.91;4293174;33;20151;-91
2023/08/06 08:36:05;;;;;;;0.08;0.00;;;;;;;19.81;60.25;98172.13;4293205;33;20076;-91
2023/08/06 08:38:31;;;;;;;0.10;0.10;;;;;;;19.73;60.25;98165.94;4292869;33;20143;-91
2023/08/06 08:40:56;;;;;;;0.00;0.00;;;;;;;19.82;60.25;98157.97;4292753;33;20146;-92
2023/08/06 08:43:22;;;;;;;0.00;0.00;;;;;;;19.64;60.24;98159.72;4293315;33;20092;-90
2023/08/06 08:45:50;;;;;;;0.37;0.37;;;;;;;19.73;60.25;98153.56;4293326;33;20466;-90
2023/08/06 08:48:15;;;;;;;0.00;0.00;;;;;;;19.87;60.26;98158.38;4304924;33;20077;-91
2023/08/06 08:50:40;;;;;;;0.00;0.00;;;;;;;19.84;60.25;98161.28;4292936;33;20128;-90
2023/08/06 08:53:06;;;;;;;0.00;0.00;;;;;;;19.68;60.24;98160.25;4294358;33;20092;-92
2023/08/06 08:55:31;;;;;;;0.00;0.00;;;;;;;19.68;60.24;98160.25;4293188;33;20119;-91
2023/08/06 08:57:57;;;;;;;0.00;0.00;;;;;;;19.87;60.25;98149.59;4304921;33;20112;-92
2023/08/06 09:00:22;;;;;;;0.00;0.00;;;;;;;19.85;60.25;98146.28;4292545;33;20181;-91
2023/08/06 09:02:48;;;;;;;0.08;0.08;;;;;;;19.81;60.24;98151.00;4294826;33;20172;-90
2023/08/06 09:05:13;;;;;;;0.00;0.00;;;;;;;19.86;60.26;98151.41;4294860;33;20136;-91
2023/08/06 09:07:45;;;;;;;0.45;0.32;;;;;;;19.75;60.24;98161.34;4294785;33;20100;-91
2023/08/06 09:10:13;;;;;;;1.75;0.20;;;;;;;19.55;60.24;98173.78;4295527;33;20456;-91
2023/08/06 09:12:39;;;;;;;0.00;0.00;;;;;;;19.36;60.22;98173.78;4295149;33;20155;-91
2023/08/06 09:15:05;;;;;;;0.00;0.00;;;;;;;19.21;60.21;98183.97;4306914;33;20143;-91
2023/08/06 09:17:30;;;;;;;0.00;0.00;;;;;;;19.28;60.22;98185.88;4294527;33;20176;-89
2023/08/06 09:19:56;;;;;;;0.00;0.00;;;;;;;19.52;60.23;98198.62;4295088;33;20168;-91
2023/08/06 09:22:21;;;;;;;0.00;0.00;;;;;;;19.78;60.24;98184.81;4294914;33;20132;-91
2023/08/06 09:24:47;;;;;;;0.00;0.00;;;;;;;19.67;60.24;98177.91;4294720;33;20146;-91
2023/08/06 09:27:13;;;;;;;0.00;0.00;;;;;;;19.43;60.23;98174.91;4294476;33;20100;-90
2023/08/06 09:29:43;;;;;;;1.23;0.52;;;;;;;19.41;60.23;98180.31;4294897;33;20120;-91
2023/08/06 09:32:08;;;;;;;0.20;0.20;;;;;;;19.37;60.22;98183.38;4294704;33;20096;-91
2023/08/06 09:34:33;;;;;;;0.00;0.00;;;;;;;19.37;60.22;98181.56;4294735;33;20274;-91
2023/08/06 09:36:59;;;;;;;0.00;0.00;;;;;;;19.30;60.21;98191.03;4294718;33;20113;-91
2023/08/06 09:39:29;;;;;;;0.00;0.00;;;;;;;19.39;60.22;98184.88;4294625;33;20140;-90
2023/08/06 09:41:58;;;;;;;0.00;0.00;;;;;;;19.44;60.23;98180.03;4294579;33;20119;-90
2023/08/06 09:44:25;;;;;;;0.00;0.00;;;;;;;19.49;60.24;98184.88;4294511;33;20167;-90
2023/08/06 09:46:58;;;;;;;0.00;0.00;;;;;;;19.60;60.24;98184.72;4294564;33;20262;-91
2023/08/06 09:49:42;;;;;;;0.00;0.00;;;;;;;19.82;60.25;98183.53;4294679;33;20172;-90
2023/08/06 09:52:15;;;;;;;0.00;0.00;;;;;;;19.84;60.25;98161.28;4306825;33;20127;-91
2023/08/06 09:54:41;;;;;;;0.00;0.00;;;;;;;19.67;60.24;98171.81;4294420;33;20087;-92
2023/08/06 09:57:06;;;;;;;0.00;0.00;;;;;;;19.65;60.24;98171.13;4294634;33;20124;-91
2023/08/06 09:59:32;;;;;;;0.00;0.00;;;;;;;19.76;60.24;98173.56;4294411;33;20152;-91
2023/08/06 10:01:58;;;;;;;0.55;0.43;;;;;;;19.82;60.25;98183.53;4294507;33;20118;-90
2023/08/06 10:04:23;;;;;;;0.05;0.05;;;;;;;20.13;60.26;98190.22;4294645;33;20139;-91
2023/08/06 10:06:49;;;;;;;0.28;0.28;;;;;;;20.26;60.27;98194.31;4294396;33;20148;-91
2023/08/06 10:09:14;;;;;;;0.00;0.00;;;;;;;20.35;60.28;98183.69;4294533;33;20139;-91
2023/08/06 10:11:40;;;;;;;0.00;0.00;;;;;;;20.52;60.28;98197.91;4294433;33;20088;-90
2023/08/06 10:14:11;;;;;;;0.00;0.00;;;;;;;20.48;60.27;98199.22;4294323;33;20126;-89
2023/08/06 10:16:37;;;;;;;1.65;0.43;;;;;;;20.78;60.30;98213.88;4306498;33;20167;-90
2023/08/06 10:19:03;;;;;;;0.00;0.00;;;;;;;20.79;60.29;98212.91;4294102;33;20124;-89
2023/08/06 10:21:30;;;;;;;0.00;0.00;;;;;;;21.13;60.32;98210.41;4294514;33;20088;-90
2023/08/06 10:23:55;;;;;;;0.00;0.00;;;;;;;21.24;60.32;98219.94;4294759;33;20096;-90
2023/08/06 10:26:27;;;;;;;0.00;0.00;;;;;;;21.19;60.32;98211.59;4294381;33;20359;-90
2023/08/06 10:28:53;;;;;;;0.00;0.00;;;;;;;21.28;60.32;98219.47;4293857;33;20124;-89
2023/08/06 10:31:18;;;;;;;0.00;0.00;;;;;;;21.47;60.33;98201.75;4293958;33;20124;-89
2023/08/06 10:33:45;;;;;;;0.77;0.22;;;;;;;21.62;60.34;98214.25;4294458;33;20119;-90
2023/08/06 10:36:10;;;;;;;0.00;0.00;;;;;;;21.49;60.34;98227.06;4295074;33;20751;-89
2023/08/06 10:38:49;;;;;;;0.00;0.00;;;;;;;21.37;60.33;98236.25;4294189;33;20109;-89
2023/08/06 10:41:35;;;;;;;0.00;0.00;;;;;;;21.28;60.33;98237.16;4294170;33;20092;-92
2023/08/06 10:44:10;;;;;;;0.08;0.08;;;;;;;21.20;60.32;98235.25;4304674;33;20134;-92
2023/08/06 10:46:36;;;;;;;0.00;0.00;;;;;;;20.96;60.31;98254.41;4291159;33;20108;-92
2023/08/06 10:49:07;;;;;;;0.00;0.00;;;;;;;21.00;60.31;98237.22;4298077;33;20116;-92
2023/08/06 10:51:32;;;;;;;0.10;0.10;;;;;;;21.30;60.32;98236.06;4269753;33;20118;-92
2023/08/06 10:53:58;;;;;;;0.00;0.00;;;;;;;21.30;60.32;98238.69;4300736;33;20108;-92
2023/08/06 10:56:26;;;;;;;0.00;0.00;;;;;;;21.25;60.32;98232.19;4275608;33;20112;-91
2023/08/06 10:58:53;;;;;;;0.00;0.00;;;;;;;21.25;60.33;98238.31;4297412;33;20134;-91
2023/08/06 11:01:19;;;;;;;0.00;0.00;;;;;;;21.31;60.32;98242.16;4295548;33;20148;-91
2023/08/06 11:03:45;;;;;;;0.00;0.00;;;;;;;21.20;60.33;98237.06;4293794;33;20151;-91
2023/08/06 11:06:11;;;;;;;0.00;0.00;;;;;;;21.33;60.34;98248.16;4287809;33;20107;-92
2023/08/06 11:08:37;;;;;;;0.00;0.00;;;;;;;21.42;60.34;98245.38;4284650;33;20430;-90
2023/08/06 11:11:15;;;;;;;0.20;0.20;;;;;;;21.02;60.30;98260.88;4293504;33;20171;-92
2023/08/06 11:13:50;;;;;;;0.00;0.00;;;;;;;20.84;60.30;98267.03;4293614;33;20123;-92
2023/08/06 11:16:20;;;;;;;0.00;0.00;;;;;;;20.93;60.31;98265.28;4297289;33;20125;-92
2023/08/06 11:18:46;;;;;;;;;;;;;;;20.58;60.29;98271.34;4284977;33;20119;-92
2023/08/06 11:21:14;;;;;;;0.00;0.00;;;;;;;20.13;60.27;98273.91;4298300;33;20321;-91
2023/08/06 11:23:40;;;;;;;0.00;0.00;;;;;;;20.09;60.27;98275.16;4307460;33;20097;-92
2023/08/06 11:26:06;;;;;;;0.00;0.00;;;;;;;19.98;60.26;98268.25;4298033;33;20127;-91
2023/08/06 11:28:31;;;;;;;0.00;0.00;;;;;;;19.97;60.26;98263.97;4286709;33;20156;-92